sensor_id;sensor_type;location;lat;lon;timestamp;temperature;humidity
73875;HTU21D;62209;47.568;7.558;2023-05-07T00:09:36;13.68;101.29
73875;HTU21D;62209;47.568;7.558;2023-05-07T00:24:43;13.44;101.97
73875;HTU21D;62209;47.568;7.558;2023-05-07T00:39:48;13.32;102.53
73875;HTU21D;62209;47.568;7.558;2023-05-07T00:54:54;13.17;103.57
73875;HTU21D;62209;47.568;7.558;2023-05-07T01:10:00;12.90;102.86
73875;HTU21D;62209;47.568;7.558;2023-05-07T01:25:07;12.63;102.89
73875;HTU21D;62209;47.568;7.558;2023-05-07T01:40:13;12.51;103.21
73875;HTU21D;62209;47.568;7.558;2023-05-07T01:55:19;12.21;103.25
73875;HTU21D;62209;47.568;7.558;2023-05-07T02:10:25;12.12;103.94
73875;HTU21D;62209;47.568;7.558;2023-05-07T02:25:30;12.02;103.57
73875;HTU21D;62209;47.568;7.558;2023-05-07T02:40:36;12.05;104.86
73875;HTU21D;62209;47.568;7.558;2023-05-07T02:55:43;11.94;104.88
73875;HTU21D;62209;47.568;7.558;2023-05-07T03:10:48;11.77;104.92
73875;HTU21D;62209;47.568;7.558;2023-05-07T03:25:54;11.85;105.41
73875;HTU21D;62209;47.568;7.558;2023-05-07T03:41:00;12.15;105.67
73875;HTU21D;62209;47.568;7.558;2023-05-07T03:56:05;12.48;105.47
73875;HTU21D;62209;47.568;7.558;2023-05-07T04:11:11;12.44;104.80
73875;HTU21D;62209;47.568;7.558;2023-05-07T04:26:17;12.74;103.02
73875;HTU21D;62209;47.568;7.558;2023-05-07T04:41:24;12.91;105.03
73875;HTU21D;62209;47.568;7.558;2023-05-07T04:56:30;13.08;105.11
73875;HTU21D;62209;47.568;7.558;2023-05-07T05:11:35;13.40;104.87
73875;HTU21D;62209;47.568;7.558;2023-05-07T05:26:41;13.89;102.31
73875;HTU21D;62209;47.568;7.558;2023-05-07T05:41:46;13.90;101.77
73875;HTU21D;62209;47.568;7.558;2023-05-07T05:56:52;14.05;101.21
73875;HTU21D;62209;47.568;7.558;2023-05-07T06:11:57;15.72;97.00
73875;HTU21D;62209;47.568;7.558;2023-05-07T06:27:03;17.38;92.59
73875;HTU21D;62209;47.568;7.558;2023-05-07T06:42:09;17.84;89.85
73875;HTU21D;62209;47.568;7.558;2023-05-07T06:57:14;19.75;84.34
73875;HTU21D;62209;47.568;7.558;2023-05-07T07:12:19;20.71;83.65
73875;HTU21D;62209;47.568;7.558;2023-05-07T07:27:25;21.05;81.91
73875;HTU21D;62209;47.568;7.558;2023-05-07T07:42:31;21.39;81.48
73875;HTU21D;62209;47.568;7.558;2023-05-07T07:57:37;21.52;79.30
73875;HTU21D;62209;47.568;7.558;2023-05-07T08:12:42;21.22;80.47
73875;HTU21D;62209;47.568;7.558;2023-05-07T08:27:48;21.50;80.70
73875;HTU21D;62209;47.568;7.558;2023-05-07T08:42:53;21.11;85.61
73875;HTU21D;62209;47.568;7.558;2023-05-07T08:58:00;21.13;82.64
73875;HTU21D;62209;47.568;7.558;2023-05-07T09:13:06;22.03;82.50
73875;HTU21D;62209;47.568;7.558;2023-05-07T09:28:12;21.85;82.68
73875;HTU21D;62209;47.568;7.558;2023-05-07T09:43:18;22.04;81.43
73875;HTU21D;62209;47.568;7.558;2023-05-07T09:58:24;22.14;80.29
73875;HTU21D;62209;47.568;7.558;2023-05-07T10:13:30;22.27;80.78
73875;HTU21D;62209;47.568;7.558;2023-05-07T10:28:38;22.50;79.75
73875;HTU21D;62209;47.568;7.558;2023-05-07T10:43:45;22.04;78.73
73875;HTU21D;62209;47.568;7.558;2023-05-07T10:58:51;21.45;82.81
73875;HTU21D;62209;47.568;7.558;2023-05-07T11:13:56;21.24;82.45
73875;HTU21D;62209;47.568;7.558;2023-05-07T11:29:02;20.10;86.30
73875;HTU21D;62209;47.568;7.558;2023-05-07T11:44:14;20.07;85.78
73875;HTU21D;62209;47.568;7.558;2023-05-07T11:59:20;19.65;85.80
73875;HTU21D;62209;47.568;7.558;2023-05-07T12:14:28;18.12;94.14
73875;HTU21D;62209;47.568;7.558;2023-05-07T12:29:34;18.09;95.78
73875;HTU21D;62209;47.568;7.558;2023-05-07T12:44:43;18.07;97.00
73875;HTU21D;62209;47.568;7.558;2023-05-07T12:59:51;18.69;94.13
73875;HTU21D;62209;47.568;7.558;2023-05-07T13:15:02;21.37;89.92
73875;HTU21D;62209;47.568;7.558;2023-05-07T13:30:08;22.68;86.34
73875;HTU21D;62209;47.568;7.558;2023-05-07T13:45:14;23.08;84.61
73875;HTU21D;62209;47.568;7.558;2023-05-07T14:00:20;22.14;83.46
73875;HTU21D;62209;47.568;7.558;2023-05-07T14:15:26;22.38;83.30
73875;HTU21D;62209;47.568;7.558;2023-05-07T14:30:31;23.02;82.17
73875;HTU21D;62209;47.568;7.558;2023-05-07T14:45:37;23.32;80.81
73875;HTU21D;62209;47.568;7.558;2023-05-07T15:00:43;22.78;78.78
73875;HTU21D;62209;47.568;7.558;2023-05-07T15:15:48;21.53;79.50
73875;HTU21D;62209;47.568;7.558;2023-05-07T15:30:54;20.59;83.20
73875;HTU21D;62209;47.568;7.558;2023-05-07T15:45:59;20.03;83.03
73875;HTU21D;62209;47.568;7.558;2023-05-07T16:01:05;19.56;84.30
73875;HTU21D;62209;47.568;7.558;2023-05-07T16:16:11;18.14;87.98
73875;HTU21D;62209;47.568;7.558;2023-05-07T16:31:16;17.73;89.30
73875;HTU21D;62209;47.568;7.558;2023-05-07T16:46:22;17.36;91.02
73875;HTU21D;62209;47.568;7.558;2023-05-07T17:01:28;17.43;92.25
73875;HTU21D;62209;47.568;7.558;2023-05-07T17:16:35;17.44;93.59
73875;HTU21D;62209;47.568;7.558;2023-05-07T17:31:40;17.14;93.52
73875;HTU21D;62209;47.568;7.558;2023-05-07T17:46:46;16.77;96.20
73875;HTU21D;62209;47.568;7.558;2023-05-07T18:01:52;16.26;100.48
73875;HTU21D;62209;47.568;7.558;2023-05-07T18:16:58;16.26;101.79
73875;HTU21D;62209;47.568;7.558;2023-05-07T18:32:04;16.14;102.26
73875;HTU21D;62209;47.568;7.558;2023-05-07T18:47:10;15.80;104.06
73875;HTU21D;62209;47.568;7.558;2023-05-07T19:02:16;15.65;104.72
73875;HTU21D;62209;47.568;7.558;2023-05-07T19:17:21;15.71;104.47
73875;HTU21D;62209;47.568;7.558;2023-05-07T19:32:27;15.67;104.98
73875;HTU21D;62209;47.568;7.558;2023-05-07T19:47:33;15.70;104.69
73875;HTU21D;62209;47.568;7.558;2023-05-07T20:02:38;15.62;105.31
73875;HTU21D;62209;47.568;7.558;2023-05-07T20:17:44;15.67;104.44
73875;HTU21D;62209;47.568;7.558;2023-05-07T20:32:50;15.62;104.07
73875;HTU21D;62209;47.568;7.558;2023-05-07T20:47:56;15.63;104.51
73875;HTU21D;62209;47.568;7.558;2023-05-07T21:03:02;15.63;102.76
73875;HTU21D;62209;47.568;7.558;2023-05-07T21:18:08;15.55;103.89
73875;HTU21D;62209;47.568;7.558;2023-05-07T21:33:14;15.51;102.88
73875;HTU21D;62209;47.568;7.558;2023-05-07T21:48:20;15.51;102.35
73875;HTU21D;62209;47.568;7.558;2023-05-07T22:03:25;15.46;103.96
73875;HTU21D;62209;47.568;7.558;2023-05-07T22:18:31;15.42;104.58
73875;HTU21D;62209;47.568;7.558;2023-05-07T22:33:37;15.31;104.44
73875;HTU21D;62209;47.568;7.558;2023-05-07T22:48:43;15.25;104.77
73875;HTU21D;62209;47.568;7.558;2023-05-07T23:03:49;15.24;104.37
73875;HTU21D;62209;47.568;7.558;2023-05-07T23:18:54;15.17;104.17
73875;HTU21D;62209;47.568;7.558;2023-05-07T23:34:00;15.10;104.47
73875;HTU21D;62209;47.568;7.558;2023-05-07T23:49:06;15.04;103.28
